createdAt,value
2018-07-15T00:01:30.437Z,56.58
2018-07-15T00:03:58.178Z,56.55
2018-07-15T00:06:25.939Z,56.47
2018-07-15T00:08:53.902Z,56.62
2018-07-15T00:11:21.617Z,56.40
2018-07-15T00:13:49.558Z,56.71
2018-07-15T00:16:17.617Z,56.11
2018-07-15T00:18:45.370Z,56.67
2018-07-15T00:21:13.073Z,56.73
2018-07-15T00:23:41.834Z,56.65
2018-07-15T00:26:09.537Z,56.30
2018-07-15T00:28:37.268Z,56.28
2018-07-15T00:31:05.318Z,56.27
2018-07-15T00:33:33.352Z,56.92
2018-07-15T00:36:01.463Z,56.09
2018-07-15T00:38:29.136Z,56.18
2018-07-15T00:40:56.835Z,56.36
2018-07-15T00:43:24.902Z,56.53
2018-07-15T00:45:52.855Z,56.59
2018-07-15T00:48:20.942Z,56.99
2018-07-15T00:50:48.642Z,56.28
2018-07-15T00:53:16.418Z,56.99
2018-07-15T00:55:44.480Z,56.96
2018-07-15T00:58:12.411Z,56.71
2018-07-15T01:00:45.786Z,56.35
2018-07-15T01:03:13.933Z,56.87
2018-07-15T01:05:41.967Z,56.75
2018-07-15T01:08:09.661Z,56.50
2018-07-15T01:10:37.638Z,56.62
2018-07-15T01:13:05.385Z,56.63
2018-07-15T01:15:40.001Z,56.98
2018-07-15T01:18:07.769Z,57.04
2018-07-15T01:20:35.489Z,56.36
2018-07-15T01:23:03.406Z,57.20
2018-07-15T01:25:31.561Z,56.68
2018-07-15T01:28:00.158Z,57.22
2018-07-15T01:30:27.861Z,56.81
2018-07-15T01:32:55.692Z,56.67
2018-07-15T01:35:24.015Z,57.16
2018-07-15T01:37:51.985Z,56.66
2018-07-15T01:40:19.717Z,56.52
2018-07-15T01:42:47.696Z,56.77
2018-07-15T01:45:16.099Z,57.18
2018-07-15T01:47:43.767Z,57.25
2018-07-15T01:50:11.821Z,56.50
2018-07-15T01:52:39.874Z,56.54
2018-07-15T01:55:07.930Z,57.09
2018-07-15T01:57:35.639Z,56.73
2018-07-15T02:00:03.718Z,56.49
2018-07-15T02:02:31.677Z,56.50
2018-07-15T02:04:59.494Z,56.76
2018-07-15T02:07:27.212Z,56.59
2018-07-15T02:09:55.194Z,57.27
2018-07-15T02:12:23.229Z,56.67
2018-07-15T02:14:50.924Z,56.62
2018-07-15T02:17:19.736Z,56.65
2018-07-15T02:19:47.405Z,56.56
2018-07-15T02:22:15.351Z,56.70
2018-07-15T02:24:43.405Z,56.81
2018-07-15T02:27:11.507Z,56.54
2018-07-15T02:29:39.256Z,56.77
2018-07-15T02:32:07.221Z,56.82
2018-07-15T02:34:34.978Z,56.72
2018-07-15T02:37:03.159Z,57.06
2018-07-15T02:39:31.090Z,56.90
2018-07-15T02:41:59.220Z,57.34
2018-07-15T02:44:26.978Z,56.85
2018-07-15T02:46:54.654Z,57.27
2018-07-15T02:49:22.401Z,56.86
2018-07-15T02:51:50.151Z,56.78
2018-07-15T02:54:17.952Z,57.50
2018-07-15T02:56:46.021Z,56.75
2018-07-15T02:59:13.736Z,56.79
2018-07-15T03:01:41.554Z,57.43
2018-07-15T03:04:09.445Z,56.81
2018-07-15T03:06:37.569Z,57.03
2018-07-15T03:09:07.168Z,57.49
2018-07-15T03:11:34.930Z,57.42
2018-07-15T03:14:02.604Z,56.99
2018-07-15T03:16:30.640Z,57.43
2018-07-15T03:18:58.701Z,57.42
2018-07-15T03:21:26.755Z,57.40
2018-07-15T03:23:54.429Z,57.47
2018-07-15T03:26:23.021Z,56.77
2018-07-15T03:28:51.049Z,56.77
2018-07-15T03:31:19.076Z,56.82
2018-07-15T03:33:47.134Z,56.75
2018-07-15T03:36:14.828Z,57.37
2018-07-15T03:38:43.166Z,56.97
2018-07-15T03:41:11.133Z,57.43
2018-07-15T03:43:39.317Z,57.37
2018-07-15T03:46:07.047Z,57.38
2018-07-15T03:48:35.182Z,56.87
2018-07-15T03:51:02.896Z,56.90
2018-07-15T03:53:30.942Z,56.73
2018-07-15T03:55:58.697Z,57.24
2018-07-15T03:58:26.452Z,56.54
2018-07-15T04:00:54.574Z,57.11
2018-07-15T04:03:26.905Z,56.56
2018-07-15T04:05:54.624Z,57.16
2018-07-15T04:08:22.846Z,57.22
2018-07-15T04:10:51.086Z,56.60
2018-07-15T04:13:18.803Z,57.30
2018-07-15T04:15:46.538Z,57.24
2018-07-15T04:18:14.252Z,57.25
2018-07-15T04:20:41.967Z,57.07
2018-07-15T04:23:10.070Z,56.54
2018-07-15T04:25:38.167Z,56.67
2018-07-15T04:28:06.361Z,56.27
2018-07-15T04:30:34.043Z,56.59
2018-07-15T04:33:02.050Z,57.00
2018-07-15T04:35:30.348Z,56.70
2018-07-15T04:37:58.517Z,57.08
2018-07-15T04:40:26.306Z,56.29
2018-07-15T04:42:54.780Z,57.02
2018-07-15T04:45:22.771Z,57.00
2018-07-15T04:47:50.914Z,56.29
2018-07-15T04:50:18.625Z,56.65
2018-07-15T04:52:46.620Z,56.90
2018-07-15T04:55:14.402Z,56.23
2018-07-15T04:57:42.085Z,56.56
2018-07-15T05:00:10.686Z,56.73
2018-07-15T05:02:38.899Z,56.15
2018-07-15T05:05:06.604Z,56.11
2018-07-15T05:07:34.398Z,56.08
2018-07-15T05:10:02.744Z,56.58
2018-07-15T05:12:30.700Z,55.95
2018-07-15T05:14:58.711Z,56.41
2018-07-15T05:17:26.424Z,56.50
2018-07-15T05:19:54.460Z,55.90
2018-07-15T05:22:22.172Z,56.54
2018-07-15T05:24:49.872Z,55.68
2018-07-15T05:27:18.215Z,56.30
2018-07-15T05:29:46.255Z,56.32
2018-07-15T05:32:14.010Z,55.76
2018-07-15T05:34:42.120Z,55.95
2018-07-15T05:37:10.148Z,55.92
2018-07-15T05:39:38.263Z,56.15
2018-07-15T05:42:06.284Z,56.19
2018-07-15T05:44:34.279Z,56.02
2018-07-15T05:47:02.465Z,56.11
2018-07-15T05:49:30.189Z,56.06
2018-07-15T05:51:57.932Z,55.95
2018-07-15T05:54:25.591Z,55.30
2018-07-15T05:56:53.328Z,55.62
2018-07-15T05:59:21.385Z,55.13
2018-07-15T06:01:49.089Z,55.08
2018-07-15T06:04:17.660Z,55.71
2018-07-15T06:06:45.381Z,55.24
2018-07-15T06:09:13.363Z,55.94
2018-07-15T06:11:41.116Z,54.94
2018-07-15T06:14:09.067Z,54.95
2018-07-15T06:16:37.386Z,54.91
2018-07-15T06:19:05.075Z,55.53
2018-07-15T06:21:33.055Z,55.50
2018-07-15T06:24:00.999Z,55.38
2018-07-15T06:26:29.017Z,55.49
2018-07-15T06:28:56.705Z,55.27
2018-07-15T06:31:24.468Z,55.21
2018-07-15T06:33:52.144Z,55.03
2018-07-15T06:36:19.837Z,55.22
2018-07-15T06:38:47.629Z,54.49
2018-07-15T06:41:15.464Z,55.17
2018-07-15T06:43:43.129Z,54.45
2018-07-15T06:46:11.021Z,54.44
2018-07-15T06:48:39.341Z,54.47
2018-07-15T06:51:07.676Z,54.26
2018-07-15T06:53:35.499Z,54.31
2018-07-15T06:56:03.331Z,54.73
2018-07-15T06:58:31.253Z,54.58
2018-07-15T07:00:59.203Z,54.67
2018-07-15T07:03:27.439Z,54.57
2018-07-15T07:05:55.692Z,54.15
2018-07-15T07:08:23.683Z,54.61
2018-07-15T07:10:51.434Z,54.55
2018-07-15T07:13:19.559Z,54.46
2018-07-15T07:15:47.234Z,54.25
2018-07-15T07:18:15.892Z,53.78
2018-07-15T07:20:44.021Z,53.81
2018-07-15T07:23:12.258Z,54.41
2018-07-15T07:25:39.927Z,53.53
2018-07-15T07:28:07.635Z,54.31
2018-07-15T07:30:35.597Z,53.93
2018-07-15T07:33:03.373Z,53.41
2018-07-15T07:35:31.151Z,53.91
2018-07-15T07:37:59.092Z,53.71
2018-07-15T07:40:26.804Z,53.39
2018-07-15T07:42:54.801Z,53.98
2018-07-15T07:45:22.876Z,53.88
2018-07-15T07:47:50.849Z,53.82
2018-07-15T07:50:18.594Z,53.04
2018-07-15T07:52:46.615Z,53.62
2018-07-15T07:55:14.271Z,53.48
2018-07-15T07:57:42.224Z,53.45
2018-07-15T08:00:10.424Z,53.44
2018-07-15T08:02:38.133Z,53.25
2018-07-15T08:05:06.110Z,53.32
2018-07-15T08:07:34.173Z,52.44
2018-07-15T08:10:02.276Z,53.11
2018-07-15T08:12:30.065Z,52.43
2018-07-15T08:14:58.257Z,52.59
2018-07-15T08:17:25.962Z,52.37
2018-07-15T08:19:53.685Z,52.52
2018-07-15T08:22:21.390Z,52.49
2018-07-15T08:24:49.052Z,52.92
2018-07-15T08:27:16.731Z,53.03
2018-07-15T08:29:55.634Z,52.28
2018-07-15T08:32:23.286Z,52.29
2018-07-15T08:34:50.987Z,52.89
2018-07-15T08:37:18.707Z,52.39
2018-07-15T08:39:46.426Z,52.76
2018-07-15T08:42:14.396Z,52.82
2018-07-15T08:44:42.335Z,51.99
2018-07-15T08:49:52.620Z,52.54
2018-07-15T08:52:20.556Z,51.85
2018-07-15T08:54:48.204Z,52.42
2018-07-15T08:57:15.938Z,52.10
2018-07-15T08:59:43.609Z,52.24
2018-07-15T09:02:11.251Z,51.55
2018-07-15T09:04:39.364Z,51.72
2018-07-15T09:07:07.143Z,52.10
2018-07-15T09:09:35.109Z,51.62
2018-07-15T09:12:03.627Z,51.45
2018-07-15T09:14:31.727Z,51.59
2018-07-15T09:16:59.413Z,51.84
2018-07-15T09:19:27.117Z,51.51
2018-07-15T09:21:55.133Z,51.94
2018-07-15T09:24:22.781Z,51.82
2018-07-15T09:26:50.653Z,51.79
2018-07-15T09:29:18.358Z,51.12
2018-07-15T09:31:46.032Z,51.00
2018-07-15T09:34:14.081Z,51.42
2018-07-15T09:36:42.037Z,51.10
2018-07-15T09:39:10.615Z,51.69
2018-07-15T09:41:38.364Z,51.21
2018-07-15T09:44:06.074Z,50.94
2018-07-15T09:46:33.830Z,50.43
2018-07-15T09:49:01.520Z,51.12
2018-07-15T09:51:29.518Z,50.59
2018-07-15T09:53:57.469Z,51.29
2018-07-15T09:56:25.204Z,51.07
2018-07-15T09:58:52.889Z,51.61
2018-07-15T10:01:20.581Z,50.85
2018-07-15T10:03:48.546Z,51.00
2018-07-15T10:06:16.253Z,51.03
2018-07-15T10:08:43.984Z,50.41
2018-07-15T10:11:11.723Z,50.52
2018-07-15T10:13:39.622Z,51.08
2018-07-15T10:16:07.664Z,50.70
2018-07-15T10:18:35.754Z,50.65
2018-07-15T10:21:03.468Z,50.55
2018-07-15T10:23:31.185Z,51.00
2018-07-15T10:25:58.923Z,50.98
2018-07-15T10:28:26.943Z,50.29
2018-07-15T10:30:54.938Z,49.99
2018-07-15T10:33:23.465Z,50.06
2018-07-15T10:35:51.114Z,50.38
2018-07-15T10:38:19.195Z,49.85
2018-07-15T10:40:47.138Z,49.90
2018-07-15T10:43:14.910Z,49.80
2018-07-15T10:45:42.566Z,50.16
2018-07-15T10:48:10.829Z,50.18
2018-07-15T10:50:38.585Z,50.29
2018-07-15T10:53:06.356Z,49.95
2018-07-15T10:55:34.775Z,50.27
2018-07-15T10:58:02.461Z,50.63
2018-07-15T11:00:30.168Z,50.03
2018-07-15T11:02:58.154Z,50.07
2018-07-15T11:05:25.827Z,49.94
2018-07-15T11:07:53.933Z,49.59
2018-07-15T11:10:21.736Z,50.15
2018-07-15T11:12:49.418Z,49.47
2018-07-15T11:15:17.097Z,50.07
2018-07-15T11:17:44.776Z,50.18
2018-07-15T11:20:12.418Z,49.38
2018-07-15T11:22:40.228Z,49.99
2018-07-15T11:25:08.460Z,48.99
2018-07-15T11:27:36.377Z,49.85
2018-07-15T11:30:04.085Z,49.18
2018-07-15T11:32:32.153Z,49.59
2018-07-15T11:34:59.877Z,49.74
2018-07-15T11:37:27.963Z,48.69
2018-07-15T11:39:55.985Z,48.84
2018-07-15T11:42:23.916Z,48.66
2018-07-15T11:44:51.542Z,48.97
2018-07-15T11:47:19.272Z,48.80
2018-07-15T11:49:46.880Z,48.61
2018-07-15T11:52:14.638Z,48.90
2018-07-15T11:54:42.824Z,48.40
2018-07-15T11:57:11.021Z,48.87
2018-07-15T11:59:38.963Z,48.70
2018-07-15T12:02:06.655Z,48.68
2018-07-15T12:04:34.256Z,48.60
2018-07-15T12:07:02.212Z,48.86
2018-07-15T12:09:30.142Z,48.70
2018-07-15T12:11:58.086Z,48.49
2018-07-15T12:14:26.286Z,48.08
2018-07-15T12:16:54.056Z,48.32
2018-07-15T12:19:22.353Z,48.41
2018-07-15T12:21:50.026Z,48.63
2018-07-15T12:24:17.721Z,48.52
2018-07-15T12:26:45.371Z,48.72
2018-07-15T12:29:13.365Z,48.70
2018-07-15T12:31:41.045Z,48.57
2018-07-15T12:34:08.901Z,48.68
2018-07-15T12:36:36.608Z,48.50
2018-07-15T12:39:05.747Z,49.08
2018-07-15T12:41:33.911Z,48.53
2018-07-15T12:44:01.664Z,48.32
2018-07-15T12:46:29.571Z,48.48
2018-07-15T12:48:57.990Z,49.16
2018-07-15T12:51:25.702Z,49.09
2018-07-15T12:53:53.627Z,48.59
2018-07-15T12:56:21.672Z,49.41
2018-07-15T12:58:49.740Z,49.29
2018-07-15T13:01:17.420Z,48.47
2018-07-15T13:03:45.349Z,49.04
2018-07-15T13:06:13.059Z,49.28
2018-07-15T13:08:41.050Z,48.94
2018-07-15T13:11:08.892Z,49.70
2018-07-15T13:13:36.641Z,49.35
2018-07-15T13:16:04.524Z,48.93
2018-07-15T13:18:32.197Z,49.46
2018-07-15T13:20:59.832Z,48.93
2018-07-15T13:23:27.765Z,48.59
2018-07-15T13:25:55.446Z,49.51
2018-07-15T13:28:23.058Z,49.08
2018-07-15T13:30:51.082Z,49.01
2018-07-15T13:33:18.756Z,48.86
2018-07-15T13:35:46.753Z,49.13
2018-07-15T13:38:14.414Z,48.85
2018-07-15T13:40:42.086Z,48.14
2018-07-15T13:43:09.723Z,48.17
2018-07-15T13:45:37.729Z,48.25
2018-07-15T13:48:05.389Z,48.74
2018-07-15T13:50:33.020Z,49.17
2018-07-15T13:53:01.044Z,48.33
2018-07-15T13:55:28.700Z,48.92
2018-07-15T13:57:56.340Z,49.16
2018-07-15T14:00:24.453Z,48.96
2018-07-15T14:02:52.385Z,48.77
2018-07-15T14:05:20.395Z,48.64
2018-07-15T14:07:48.083Z,49.11
2018-07-15T14:10:15.745Z,48.26
2018-07-15T14:12:43.390Z,48.69
2018-07-15T14:15:11.093Z,48.16
2018-07-15T14:17:39.329Z,48.37
2018-07-15T14:20:07.465Z,49.19
2018-07-15T14:22:35.256Z,48.79
2018-07-15T14:25:03.495Z,48.69
2018-07-15T14:27:31.765Z,48.05
2018-07-15T14:29:59.473Z,47.69
2018-07-15T14:32:27.442Z,48.03
2018-07-15T14:34:55.120Z,47.20
2018-07-15T14:37:23.138Z,46.20
2018-07-15T14:39:51.410Z,43.43
2018-07-15T14:42:20.308Z,43.34
2018-07-15T14:44:48.221Z,43.69
2018-07-15T14:47:15.874Z,44.60
2018-07-15T14:49:43.542Z,42.71
2018-07-15T14:52:11.609Z,40.13
2018-07-15T14:54:39.501Z,37.78
2018-07-15T14:57:07.194Z,39.57
2018-07-15T14:59:34.908Z,40.12
2018-07-15T15:02:02.601Z,39.37
2018-07-15T15:04:30.300Z,38.33
2018-07-15T15:06:58.312Z,39.15
2018-07-15T15:09:26.443Z,41.28
2018-07-15T15:11:54.338Z,43.42
2018-07-15T15:14:22.021Z,44.17
2018-07-15T15:16:49.967Z,45.56
2018-07-15T15:19:17.665Z,45.96
2018-07-15T15:21:45.385Z,45.72
2018-07-15T15:24:13.432Z,46.65
2018-07-15T15:26:41.106Z,46.65
2018-07-15T15:29:08.814Z,47.55
2018-07-15T15:31:37.191Z,46.50
2018-07-15T15:34:04.893Z,46.62
2018-07-15T15:36:32.568Z,47.25
2018-07-15T15:39:00.592Z,47.62
2018-07-15T15:41:28.221Z,47.55
2018-07-15T15:43:55.926Z,47.43
2018-07-15T15:46:23.833Z,47.59
2018-07-15T15:48:51.770Z,47.03
2018-07-15T15:51:21.413Z,47.54
2018-07-15T15:53:49.088Z,48.25
2018-07-15T15:56:16.724Z,48.40
2018-07-15T15:58:44.424Z,47.75
2018-07-15T16:01:12.158Z,48.11
2018-07-15T16:03:39.848Z,47.47
2018-07-15T16:06:07.489Z,47.68
2018-07-15T16:08:35.807Z,47.45
2018-07-15T16:11:04.105Z,46.89
2018-07-15T16:13:32.042Z,46.91
2018-07-15T16:15:59.964Z,47.47
2018-07-15T16:18:27.890Z,46.27
2018-07-15T16:20:55.824Z,46.56
2018-07-15T16:23:23.951Z,45.87
2018-07-15T16:25:52.032Z,46.66
2018-07-15T16:28:19.995Z,46.21
2018-07-15T16:30:47.591Z,45.98
2018-07-15T16:33:15.249Z,46.17
2018-07-15T16:35:43.218Z,46.72
2018-07-15T16:38:11.170Z,45.83
2018-07-15T16:40:39.065Z,46.86
2018-07-15T16:43:07.052Z,47.32
2018-07-15T16:45:35.038Z,47.12
2018-07-15T16:48:02.725Z,47.60
2018-07-15T16:50:30.705Z,46.92
2018-07-15T16:52:58.340Z,46.23
2018-07-15T16:55:26.016Z,45.83
2018-07-15T16:57:53.678Z,45.95
2018-07-15T17:00:21.643Z,45.81
2018-07-15T17:02:49.581Z,45.95
2018-07-15T17:05:17.565Z,45.52
2018-07-15T17:07:45.567Z,44.59
2018-07-15T17:10:13.246Z,45.09
2018-07-15T17:12:41.321Z,44.13
2018-07-15T17:15:09.108Z,43.69
2018-07-15T17:17:36.779Z,43.58
2018-07-15T17:20:04.586Z,43.87
2018-07-15T17:22:32.349Z,43.92
2018-07-15T17:25:00.028Z,43.61
2018-07-15T17:27:28.013Z,44.14
2018-07-15T17:29:56.721Z,43.13
2018-07-15T17:32:24.719Z,43.50
2018-07-15T17:34:52.431Z,43.14
2018-07-15T17:37:20.099Z,43.66
2018-07-15T17:39:48.145Z,42.69
2018-07-15T17:42:15.888Z,43.42
2018-07-15T17:44:44.315Z,43.31
2018-07-15T17:47:12.255Z,43.56
2018-07-15T17:49:39.937Z,42.64
2018-07-15T17:52:07.671Z,43.10
2018-07-15T17:54:35.632Z,43.12
2018-07-15T17:57:03.801Z,42.69
2018-07-15T17:59:31.738Z,43.71
2018-07-15T18:01:59.906Z,42.74
2018-07-15T18:04:27.851Z,42.82
2018-07-15T18:06:55.519Z,43.37
2018-07-15T18:09:23.137Z,43.27
2018-07-15T18:11:51.471Z,43.72
2018-07-15T18:14:19.192Z,43.90
2018-07-15T18:16:46.836Z,44.26
2018-07-15T18:19:14.476Z,43.32
2018-07-15T18:21:42.106Z,43.67
2018-07-15T18:24:09.974Z,43.44
2018-07-15T18:26:37.935Z,43.88
2018-07-15T18:29:05.617Z,44.46
2018-07-15T18:31:33.261Z,43.76
2018-07-15T18:34:01.134Z,43.84
2018-07-15T18:36:29.161Z,44.01
2018-07-15T18:38:56.901Z,44.91
2018-07-15T18:41:24.554Z,45.13
2018-07-15T18:43:52.576Z,44.27
2018-07-15T18:46:20.230Z,44.95
2018-07-15T18:48:47.838Z,44.67
2018-07-15T18:51:15.510Z,45.42
2018-07-15T18:53:43.217Z,45.77
2018-07-15T18:56:10.862Z,45.56
2018-07-15T18:58:38.558Z,45.33
2018-07-15T19:01:06.421Z,46.33
2018-07-15T19:03:34.155Z,45.40
2018-07-15T19:06:02.152Z,46.59
2018-07-15T19:08:30.122Z,46.20
2018-07-15T19:10:57.856Z,46.73
2018-07-15T19:13:25.765Z,47.04
2018-07-15T19:15:53.771Z,46.42
2018-07-15T19:18:21.584Z,46.78
2018-07-15T19:20:49.234Z,47.39
2018-07-15T19:23:17.077Z,47.77
2018-07-15T19:25:44.771Z,47.89
2018-07-15T19:28:12.813Z,48.31
2018-07-15T19:30:40.557Z,49.13
2018-07-15T19:33:08.666Z,48.89
2018-07-15T19:35:36.670Z,49.38
2018-07-15T19:38:04.493Z,49.41
2018-07-15T19:40:32.543Z,49.59
2018-07-15T19:43:00.619Z,49.06
2018-07-15T19:45:28.376Z,49.63
2018-07-15T19:47:56.383Z,50.09
2018-07-15T19:50:24.524Z,49.24
2018-07-15T19:52:52.658Z,50.32
2018-07-15T19:55:20.600Z,49.96
2018-07-15T19:57:48.753Z,50.04
2018-07-15T20:00:16.568Z,50.47
2018-07-15T20:02:44.520Z,49.69
2018-07-15T20:05:12.362Z,50.44
2018-07-15T20:07:40.693Z,50.65
2018-07-15T20:10:08.641Z,50.59
2018-07-15T20:12:37.064Z,50.21
2018-07-15T20:15:05.060Z,50.88
2018-07-15T20:17:33.021Z,50.55
2018-07-15T20:20:01.250Z,50.77
2018-07-15T20:22:28.913Z,51.06
2018-07-15T20:24:56.601Z,51.56
2018-07-15T20:27:24.597Z,50.72
2018-07-15T20:29:52.254Z,50.51
2018-07-15T20:32:19.980Z,51.41
2018-07-15T20:34:48.333Z,51.41
2018-07-15T20:37:16.260Z,50.93
2018-07-15T20:39:44.117Z,51.72
2018-07-15T20:42:12.097Z,51.51
2018-07-15T20:44:40.026Z,51.73
2018-07-15T20:47:07.729Z,51.37
2018-07-15T20:49:35.426Z,51.82
2018-07-15T20:52:03.154Z,52.11
2018-07-15T20:54:30.898Z,51.76
2018-07-15T20:56:58.534Z,52.27
2018-07-15T20:59:26.792Z,51.63
2018-07-15T21:01:54.982Z,51.98
2018-07-15T21:04:22.890Z,51.74
2018-07-15T21:06:51.129Z,52.17
2018-07-15T21:09:18.802Z,52.64
2018-07-15T21:11:46.829Z,53.04
2018-07-15T21:14:15.070Z,52.64
2018-07-15T21:16:42.705Z,53.25
2018-07-15T21:19:10.514Z,52.40
2018-07-15T21:21:38.132Z,53.19
2018-07-15T21:24:05.875Z,52.92
2018-07-15T21:26:33.542Z,53.19
2018-07-15T21:29:01.354Z,52.80
2018-07-15T21:31:29.071Z,52.81
2018-07-15T21:33:56.773Z,53.27
2018-07-15T21:36:24.779Z,53.28
2018-07-15T21:38:52.381Z,53.43
2018-07-15T21:41:20.641Z,52.99
2018-07-15T21:43:48.688Z,53.66
2018-07-15T21:46:16.701Z,52.87
2018-07-15T21:48:44.757Z,53.05
2018-07-15T21:51:12.405Z,53.43
2018-07-15T21:53:40.102Z,53.60
2018-07-15T21:56:08.348Z,53.09
2018-07-15T21:58:35.982Z,53.99
2018-07-15T22:01:03.695Z,53.83
2018-07-15T22:03:31.391Z,54.06
2018-07-15T22:05:59.590Z,53.30
2018-07-15T22:08:42.287Z,54.19
2018-07-15T22:11:09.983Z,53.52
2018-07-15T22:13:37.902Z,53.40
2018-07-15T22:16:05.918Z,53.93
2018-07-15T22:18:33.592Z,53.76
2018-07-15T22:21:01.242Z,53.55
2018-07-15T22:23:29.143Z,54.51
2018-07-15T22:25:56.827Z,53.57
2018-07-15T22:28:24.507Z,53.79
2018-07-15T22:30:52.213Z,54.40
2018-07-15T22:33:20.161Z,53.71
2018-07-15T22:35:48.437Z,54.62
2018-07-15T22:38:16.065Z,53.78
2018-07-15T22:40:43.741Z,54.33
2018-07-15T22:43:11.442Z,54.08
2018-07-15T22:45:39.367Z,54.49
2018-07-15T22:48:07.546Z,54.57
2018-07-15T22:50:35.274Z,54.20
2018-07-15T22:53:03.301Z,54.65
2018-07-15T22:55:30.988Z,54.27
2018-07-15T22:57:58.743Z,55.04
2018-07-15T23:00:26.397Z,54.96
2018-07-15T23:02:54.097Z,54.44
2018-07-15T23:05:37.397Z,55.13
2018-07-15T23:08:06.141Z,55.05
2018-07-15T23:10:34.715Z,55.23
2018-07-15T23:13:03.459Z,54.81
2018-07-15T23:15:31.661Z,54.61
2018-07-15T23:18:00.042Z,54.52
2018-07-15T23:20:28.652Z,54.65
2018-07-15T23:22:56.491Z,54.70
2018-07-15T23:25:24.666Z,54.61
2018-07-15T23:27:52.705Z,54.99
2018-07-15T23:30:20.351Z,55.30
2018-07-15T23:32:48.047Z,54.81
2018-07-15T23:35:15.684Z,54.80
2018-07-15T23:37:43.374Z,54.70
2018-07-15T23:40:11.064Z,55.39
2018-07-15T23:42:39.245Z,55.69
2018-07-15T23:45:07.120Z,55.60
2018-07-15T23:47:35.660Z,54.73
2018-07-15T23:50:03.340Z,55.69
2018-07-15T23:52:31.374Z,55.80
2018-07-15T23:54:59.437Z,54.68
2018-07-15T23:57:27.114Z,55.58
2018-07-15T23:59:55.201Z,55.81
